sensor_id;sensor_type;location;lat;lon;timestamp;P1;durP1;ratioP1;P2;durP2;ratioP2
65271;SDS011;51868;48.812;8.198;2022-08-26T00:02:09;5.03;;;3.70;;
65271;SDS011;51868;48.812;8.198;2022-08-26T00:04:38;4.45;;;3.40;;
65271;SDS011;51868;48.812;8.198;2022-08-26T00:07:06;3.78;;;3.40;;
65271;SDS011;51868;48.812;8.198;2022-08-26T00:09:34;4.93;;;3.50;;
65271;SDS011;51868;48.812;8.198;2022-08-26T00:12:06;3.85;;;3.47;;
65271;SDS011;51868;48.812;8.198;2022-08-26T00:14:37;5.60;;;3.58;;
65271;SDS011;51868;48.812;8.198;2022-08-26T00:17:07;5.47;;;3.47;;
65271;SDS011;51868;48.812;8.198;2022-08-26T00:19:35;4.10;;;3.65;;
65271;SDS011;51868;48.812;8.198;2022-08-26T00:22:03;4.15;;;3.75;;
65271;SDS011;51868;48.812;8.198;2022-08-26T00:24:31;4.75;;;3.90;;
65271;SDS011;51868;48.812;8.198;2022-08-26T00:27:03;5.10;;;3.75;;
65271;SDS011;51868;48.812;8.198;2022-08-26T00:29:31;4.32;;;3.72;;
65271;SDS011;51868;48.812;8.198;2022-08-26T00:32:03;4.60;;;3.80;;
65271;SDS011;51868;48.812;8.198;2022-08-26T00:34:38;6.15;;;3.58;;
65271;SDS011;51868;48.812;8.198;2022-08-26T00:37:08;4.97;;;3.58;;
65271;SDS011;51868;48.812;8.198;2022-08-26T00:39:41;4.05;;;3.30;;
65271;SDS011;51868;48.812;8.198;2022-08-26T00:42:10;4.45;;;3.78;;
65271;SDS011;51868;48.812;8.198;2022-08-26T00:44:39;4.32;;;3.67;;
65271;SDS011;51868;48.812;8.198;2022-08-26T00:47:08;3.88;;;3.42;;
65271;SDS011;51868;48.812;8.198;2022-08-26T00:49:43;5.20;;;4.00;;
65271;SDS011;51868;48.812;8.198;2022-08-26T00:52:18;4.32;;;3.67;;
65271;SDS011;51868;48.812;8.198;2022-08-26T00:54:49;4.45;;;3.97;;
65271;SDS011;51868;48.812;8.198;2022-08-26T00:57:20;7.60;;;3.88;;
65271;SDS011;51868;48.812;8.198;2022-08-26T00:59:52;4.43;;;4.03;;
65271;SDS011;51868;48.812;8.198;2022-08-26T01:02:23;4.47;;;4.00;;
65271;SDS011;51868;48.812;8.198;2022-08-26T01:04:56;6.13;;;3.85;;
65271;SDS011;51868;48.812;8.198;2022-08-26T01:07:29;6.32;;;3.88;;
65271;SDS011;51868;48.812;8.198;2022-08-26T01:10:03;6.35;;;3.80;;
65271;SDS011;51868;48.812;8.198;2022-08-26T01:12:37;4.78;;;4.05;;
65271;SDS011;51868;48.812;8.198;2022-08-26T01:15:08;4.78;;;4.00;;
65271;SDS011;51868;48.812;8.198;2022-08-26T01:17:39;4.40;;;4.00;;
65271;SDS011;51868;48.812;8.198;2022-08-26T01:20:11;5.18;;;4.20;;
65271;SDS011;51868;48.812;8.198;2022-08-26T01:22:51;7.70;;;4.60;;
65271;SDS011;51868;48.812;8.198;2022-08-26T01:25:23;6.68;;;4.55;;
65271;SDS011;51868;48.812;8.198;2022-08-26T01:27:55;5.55;;;4.93;;
65271;SDS011;51868;48.812;8.198;2022-08-26T01:30:25;6.38;;;4.60;;
65271;SDS011;51868;48.812;8.198;2022-08-26T01:32:54;5.38;;;4.40;;
65271;SDS011;51868;48.812;8.198;2022-08-26T01:35:24;4.35;;;3.95;;
65271;SDS011;51868;48.812;8.198;2022-08-26T01:37:53;4.45;;;4.05;;
65271;SDS011;51868;48.812;8.198;2022-08-26T01:40:24;6.22;;;3.60;;
65271;SDS011;51868;48.812;8.198;2022-08-26T01:42:57;5.78;;;4.00;;
65271;SDS011;51868;48.812;8.198;2022-08-26T01:48:01;5.68;;;4.50;;
65271;SDS011;51868;48.812;8.198;2022-08-26T01:50:35;4.13;;;3.70;;
65271;SDS011;51868;48.812;8.198;2022-08-26T01:53:06;4.30;;;3.80;;
65271;SDS011;51868;48.812;8.198;2022-08-26T01:55:38;5.57;;;3.97;;
65271;SDS011;51868;48.812;8.198;2022-08-26T01:58:09;4.90;;;3.97;;
65271;SDS011;51868;48.812;8.198;2022-08-26T02:00:44;5.00;;;4.00;;
65271;SDS011;51868;48.812;8.198;2022-08-26T02:03:14;4.80;;;4.30;;
65271;SDS011;51868;48.812;8.198;2022-08-26T02:05:43;5.50;;;4.65;;
65271;SDS011;51868;48.812;8.198;2022-08-26T02:08:17;4.90;;;4.40;;
65271;SDS011;51868;48.812;8.198;2022-08-26T02:10:50;5.82;;;4.35;;
65271;SDS011;51868;48.812;8.198;2022-08-26T02:13:24;5.80;;;4.10;;
65271;SDS011;51868;48.812;8.198;2022-08-26T02:15:56;5.07;;;4.57;;
65271;SDS011;51868;48.812;8.198;2022-08-26T02:18:26;6.75;;;4.25;;
65271;SDS011;51868;48.812;8.198;2022-08-26T02:20:55;7.32;;;4.40;;
65271;SDS011;51868;48.812;8.198;2022-08-26T02:23:25;9.57;;;4.40;;
65271;SDS011;51868;48.812;8.198;2022-08-26T02:25:55;5.00;;;4.50;;
65271;SDS011;51868;48.812;8.198;2022-08-26T02:28:32;5.00;;;4.50;;
65271;SDS011;51868;48.812;8.198;2022-08-26T02:31:05;6.18;;;4.32;;
65271;SDS011;51868;48.812;8.198;2022-08-26T02:33:35;6.82;;;4.63;;
65271;SDS011;51868;48.812;8.198;2022-08-26T02:36:08;5.68;;;4.90;;
65271;SDS011;51868;48.812;8.198;2022-08-26T02:38:38;5.82;;;4.80;;
65271;SDS011;51868;48.812;8.198;2022-08-26T02:41:08;5.10;;;4.50;;
65271;SDS011;51868;48.812;8.198;2022-08-26T02:43:45;5.53;;;5.00;;
65271;SDS011;51868;48.812;8.198;2022-08-26T02:46:16;5.50;;;4.50;;
65271;SDS011;51868;48.812;8.198;2022-08-26T02:49:25;5.82;;;4.43;;
65271;SDS011;51868;48.812;8.198;2022-08-26T02:51:58;4.78;;;4.32;;
65271;SDS011;51868;48.812;8.198;2022-08-26T02:54:32;6.53;;;4.82;;
65271;SDS011;51868;48.812;8.198;2022-08-26T02:57:07;6.85;;;4.88;;
65271;SDS011;51868;48.812;8.198;2022-08-26T02:59:53;5.85;;;4.72;;
65271;SDS011;51868;48.812;8.198;2022-08-26T03:02:32;6.43;;;4.90;;
65271;SDS011;51868;48.812;8.198;2022-08-26T03:05:19;14.57;;;5.30;;
65271;SDS011;51868;48.812;8.198;2022-08-26T03:07:58;5.32;;;4.43;;
65271;SDS011;51868;48.812;8.198;2022-08-26T03:10:58;6.47;;;4.85;;
65271;SDS011;51868;48.812;8.198;2022-08-26T03:13:27;5.70;;;4.82;;
65271;SDS011;51868;48.812;8.198;2022-08-26T03:15:55;7.93;;;4.60;;
65271;SDS011;51868;48.812;8.198;2022-08-26T03:18:30;8.25;;;5.47;;
65271;SDS011;51868;48.812;8.198;2022-08-26T03:21:04;6.20;;;5.47;;
65271;SDS011;51868;48.812;8.198;2022-08-26T03:23:34;5.45;;;4.95;;
65271;SDS011;51868;48.812;8.198;2022-08-26T03:26:04;6.95;;;5.43;;
65271;SDS011;51868;48.812;8.198;2022-08-26T03:28:36;5.63;;;5.00;;
65271;SDS011;51868;48.812;8.198;2022-08-26T03:31:24;6.40;;;5.13;;
65271;SDS011;51868;48.812;8.198;2022-08-26T03:33:52;9.70;;;5.57;;
65271;SDS011;51868;48.812;8.198;2022-08-26T03:36:25;6.57;;;5.40;;
65271;SDS011;51868;48.812;8.198;2022-08-26T03:38:54;10.05;;;5.53;;
65271;SDS011;51868;48.812;8.198;2022-08-26T03:41:25;7.88;;;5.70;;
65271;SDS011;51868;48.812;8.198;2022-08-26T03:43:56;6.32;;;5.72;;
65271;SDS011;51868;48.812;8.198;2022-08-26T03:48:56;6.25;;;5.50;;
65271;SDS011;51868;48.812;8.198;2022-08-26T03:51:26;7.00;;;5.93;;
65271;SDS011;51868;48.812;8.198;2022-08-26T03:53:59;8.85;;;6.30;;
65271;SDS011;51868;48.812;8.198;2022-08-26T03:56:29;7.93;;;6.18;;
65271;SDS011;51868;48.812;8.198;2022-08-26T03:58:59;8.50;;;6.07;;
65271;SDS011;51868;48.812;8.198;2022-08-26T04:01:28;13.38;;;6.28;;
65271;SDS011;51868;48.812;8.198;2022-08-26T04:04:09;7.25;;;6.22;;
65271;SDS011;51868;48.812;8.198;2022-08-26T04:06:43;8.15;;;6.30;;
65271;SDS011;51868;48.812;8.198;2022-08-26T04:09:25;7.85;;;5.82;;
65271;SDS011;51868;48.812;8.198;2022-08-26T04:12:02;9.38;;;6.05;;
65271;SDS011;51868;48.812;8.198;2022-08-26T04:14:32;9.95;;;6.07;;
65271;SDS011;51868;48.812;8.198;2022-08-26T04:17:05;6.53;;;5.88;;
65271;SDS011;51868;48.812;8.198;2022-08-26T04:19:46;9.85;;;6.40;;
65271;SDS011;51868;48.812;8.198;2022-08-26T04:22:16;8.55;;;5.85;;
65271;SDS011;51868;48.812;8.198;2022-08-26T04:24:52;9.55;;;5.93;;
65271;SDS011;51868;48.812;8.198;2022-08-26T04:27:26;9.23;;;5.85;;
65271;SDS011;51868;48.812;8.198;2022-08-26T04:29:56;6.32;;;5.53;;
65271;SDS011;51868;48.812;8.198;2022-08-26T04:32:34;7.05;;;6.03;;
65271;SDS011;51868;48.812;8.198;2022-08-26T04:37:35;10.27;;;6.38;;
65271;SDS011;51868;48.812;8.198;2022-08-26T04:40:04;9.23;;;6.28;;
65271;SDS011;51868;48.812;8.198;2022-08-26T04:42:36;8.98;;;5.80;;
65271;SDS011;51868;48.812;8.198;2022-08-26T04:47:37;7.20;;;5.70;;
65271;SDS011;51868;48.812;8.198;2022-08-26T04:50:05;8.50;;;5.60;;
65271;SDS011;51868;48.812;8.198;2022-08-26T04:52:36;6.30;;;5.70;;
65271;SDS011;51868;48.812;8.198;2022-08-26T04:55:28;13.20;;;6.43;;
65271;SDS011;51868;48.812;8.198;2022-08-26T04:58:14;9.63;;;6.40;;
65271;SDS011;51868;48.812;8.198;2022-08-26T05:00:46;9.75;;;6.28;;
65271;SDS011;51868;48.812;8.198;2022-08-26T05:03:26;9.60;;;5.30;;
65271;SDS011;51868;48.812;8.198;2022-08-26T05:06:23;7.18;;;5.63;;
65271;SDS011;51868;48.812;8.198;2022-08-26T05:11:42;6.55;;;5.68;;
65271;SDS011;51868;48.812;8.198;2022-08-26T05:14:15;9.93;;;5.68;;
65271;SDS011;51868;48.812;8.198;2022-08-26T05:16:54;6.60;;;5.93;;
65271;SDS011;51868;48.812;8.198;2022-08-26T05:19:30;8.73;;;5.88;;
65271;SDS011;51868;48.812;8.198;2022-08-26T05:22:08;8.40;;;5.95;;
65271;SDS011;51868;48.812;8.198;2022-08-26T05:24:54;7.82;;;6.10;;
65271;SDS011;51868;48.812;8.198;2022-08-26T05:27:23;7.65;;;5.78;;
65271;SDS011;51868;48.812;8.198;2022-08-26T05:29:57;6.30;;;5.47;;
65271;SDS011;51868;48.812;8.198;2022-08-26T05:32:45;5.97;;;5.38;;
65271;SDS011;51868;48.812;8.198;2022-08-26T05:35:20;7.63;;;5.50;;
65271;SDS011;51868;48.812;8.198;2022-08-26T05:37:52;8.10;;;5.60;;
65271;SDS011;51868;48.812;8.198;2022-08-26T05:40:41;6.65;;;5.90;;
65271;SDS011;51868;48.812;8.198;2022-08-26T05:43:11;10.38;;;5.97;;
65271;SDS011;51868;48.812;8.198;2022-08-26T05:45:49;7.40;;;6.18;;
65271;SDS011;51868;48.812;8.198;2022-08-26T05:48:24;8.82;;;6.18;;
65271;SDS011;51868;48.812;8.198;2022-08-26T05:50:54;6.95;;;6.00;;
65271;SDS011;51868;48.812;8.198;2022-08-26T05:53:23;8.32;;;5.75;;
65271;SDS011;51868;48.812;8.198;2022-08-26T05:56:22;9.13;;;5.78;;
65271;SDS011;51868;48.812;8.198;2022-08-26T05:59:04;7.07;;;5.70;;
65271;SDS011;51868;48.812;8.198;2022-08-26T06:01:41;8.33;;;6.10;;
65271;SDS011;51868;48.812;8.198;2022-08-26T06:04:10;7.75;;;5.90;;
65271;SDS011;51868;48.812;8.198;2022-08-26T06:06:40;8.05;;;6.13;;
65271;SDS011;51868;48.812;8.198;2022-08-26T06:09:10;7.82;;;5.63;;
65271;SDS011;51868;48.812;8.198;2022-08-26T06:11:43;14.10;;;6.50;;
65271;SDS011;51868;48.812;8.198;2022-08-26T06:14:11;6.38;;;5.20;;
65271;SDS011;51868;48.812;8.198;2022-08-26T06:16:41;9.57;;;5.85;;
65271;SDS011;51868;48.812;8.198;2022-08-26T06:19:11;8.10;;;5.78;;
65271;SDS011;51868;48.812;8.198;2022-08-26T06:21:44;6.80;;;5.95;;
65271;SDS011;51868;48.812;8.198;2022-08-26T06:24:20;8.75;;;5.82;;
65271;SDS011;51868;48.812;8.198;2022-08-26T06:27:05;7.15;;;6.43;;
65271;SDS011;51868;48.812;8.198;2022-08-26T06:29:40;7.47;;;5.63;;
65271;SDS011;51868;48.812;8.198;2022-08-26T06:32:13;6.57;;;5.53;;
65271;SDS011;51868;48.812;8.198;2022-08-26T06:34:40;7.20;;;5.63;;
65271;SDS011;51868;48.812;8.198;2022-08-26T06:37:08;6.63;;;5.40;;
65271;SDS011;51868;48.812;8.198;2022-08-26T06:39:39;7.57;;;5.70;;
65271;SDS011;51868;48.812;8.198;2022-08-26T06:42:07;8.48;;;5.75;;
65271;SDS011;51868;48.812;8.198;2022-08-26T06:44:37;7.00;;;5.80;;
65271;SDS011;51868;48.812;8.198;2022-08-26T06:47:10;7.30;;;6.05;;
65271;SDS011;51868;48.812;8.198;2022-08-26T06:49:39;7.75;;;6.07;;
65271;SDS011;51868;48.812;8.198;2022-08-26T06:52:09;6.97;;;6.05;;
65271;SDS011;51868;48.812;8.198;2022-08-26T06:54:45;10.02;;;5.40;;
65271;SDS011;51868;48.812;8.198;2022-08-26T06:57:13;6.53;;;5.50;;
65271;SDS011;51868;48.812;8.198;2022-08-26T06:59:43;7.72;;;5.30;;
65271;SDS011;51868;48.812;8.198;2022-08-26T07:02:16;5.90;;;5.30;;
65271;SDS011;51868;48.812;8.198;2022-08-26T07:05:11;10.13;;;5.47;;
65271;SDS011;51868;48.812;8.198;2022-08-26T07:07:41;8.40;;;4.75;;
65271;SDS011;51868;48.812;8.198;2022-08-26T07:12:39;6.03;;;4.70;;
65271;SDS011;51868;48.812;8.198;2022-08-26T07:15:12;6.18;;;5.00;;
65271;SDS011;51868;48.812;8.198;2022-08-26T07:17:40;7.75;;;5.15;;
65271;SDS011;51868;48.812;8.198;2022-08-26T07:20:09;4.50;;;4.10;;
65271;SDS011;51868;48.812;8.198;2022-08-26T07:22:38;7.57;;;4.72;;
65271;SDS011;51868;48.812;8.198;2022-08-26T07:25:07;6.45;;;4.38;;
65271;SDS011;51868;48.812;8.198;2022-08-26T07:27:36;6.57;;;4.57;;
65271;SDS011;51868;48.812;8.198;2022-08-26T07:30:05;7.00;;;4.57;;
65271;SDS011;51868;48.812;8.198;2022-08-26T07:32:40;6.53;;;4.40;;
65271;SDS011;51868;48.812;8.198;2022-08-26T07:35:14;6.82;;;4.00;;
65271;SDS011;51868;48.812;8.198;2022-08-26T07:37:42;7.00;;;4.30;;
65271;SDS011;51868;48.812;8.198;2022-08-26T07:40:10;7.03;;;3.97;;
65271;SDS011;51868;48.812;8.198;2022-08-26T07:42:43;6.68;;;3.88;;
65271;SDS011;51868;48.812;8.198;2022-08-26T07:45:11;11.07;;;4.47;;
65271;SDS011;51868;48.812;8.198;2022-08-26T07:47:42;8.88;;;4.88;;
65271;SDS011;51868;48.812;8.198;2022-08-26T07:50:12;4.88;;;4.38;;
65271;SDS011;51868;48.812;8.198;2022-08-26T07:52:44;5.57;;;4.10;;
65271;SDS011;51868;48.812;8.198;2022-08-26T07:55:13;5.97;;;4.38;;
65271;SDS011;51868;48.812;8.198;2022-08-26T07:57:41;7.43;;;4.32;;
65271;SDS011;51868;48.812;8.198;2022-08-26T08:00:15;4.43;;;4.03;;
65271;SDS011;51868;48.812;8.198;2022-08-26T08:02:43;6.32;;;3.88;;
65271;SDS011;51868;48.812;8.198;2022-08-26T08:05:14;5.53;;;3.97;;
65271;SDS011;51868;48.812;8.198;2022-08-26T08:07:45;5.15;;;4.65;;
65271;SDS011;51868;48.812;8.198;2022-08-26T08:10:26;4.75;;;4.15;;
65271;SDS011;51868;48.812;8.198;2022-08-26T08:12:57;4.22;;;3.83;;
65271;SDS011;51868;48.812;8.198;2022-08-26T08:15:26;7.07;;;4.40;;
65271;SDS011;51868;48.812;8.198;2022-08-26T08:17:58;6.28;;;4.60;;
65271;SDS011;51868;48.812;8.198;2022-08-26T08:20:27;5.13;;;4.40;;
65271;SDS011;51868;48.812;8.198;2022-08-26T08:22:56;7.80;;;3.97;;
65271;SDS011;51868;48.812;8.198;2022-08-26T08:25:24;5.50;;;4.55;;
65271;SDS011;51868;48.812;8.198;2022-08-26T08:27:54;5.53;;;4.22;;
65271;SDS011;51868;48.812;8.198;2022-08-26T08:30:22;4.50;;;4.10;;
65271;SDS011;51868;48.812;8.198;2022-08-26T08:32:50;6.25;;;3.90;;
65271;SDS011;51868;48.812;8.198;2022-08-26T08:35:18;4.63;;;3.92;;
65271;SDS011;51868;48.812;8.198;2022-08-26T08:37:51;5.65;;;4.32;;
65271;SDS011;51868;48.812;8.198;2022-08-26T08:40:22;5.93;;;4.15;;
65271;SDS011;51868;48.812;8.198;2022-08-26T08:42:56;5.47;;;4.20;;
65271;SDS011;51868;48.812;8.198;2022-08-26T08:45:28;8.10;;;4.15;;
65271;SDS011;51868;48.812;8.198;2022-08-26T08:48:03;5.22;;;4.28;;
65271;SDS011;51868;48.812;8.198;2022-08-26T08:50:33;7.60;;;4.45;;
65271;SDS011;51868;48.812;8.198;2022-08-26T08:53:12;5.15;;;4.50;;
65271;SDS011;51868;48.812;8.198;2022-08-26T08:55:53;6.35;;;4.30;;
65271;SDS011;51868;48.812;8.198;2022-08-26T08:58:29;7.10;;;4.72;;
65271;SDS011;51868;48.812;8.198;2022-08-26T09:01:11;6.45;;;4.35;;
65271;SDS011;51868;48.812;8.198;2022-08-26T09:03:49;8.63;;;4.00;;
65271;SDS011;51868;48.812;8.198;2022-08-26T09:06:26;6.38;;;4.68;;
65271;SDS011;51868;48.812;8.198;2022-08-26T09:08:56;10.52;;;5.00;;
65271;SDS011;51868;48.812;8.198;2022-08-26T09:11:26;9.48;;;4.75;;
65271;SDS011;51868;48.812;8.198;2022-08-26T09:13:59;8.02;;;5.20;;
65271;SDS011;51868;48.812;8.198;2022-08-26T09:16:33;7.82;;;5.18;;
65271;SDS011;51868;48.812;8.198;2022-08-26T09:19:08;6.88;;;4.88;;
65271;SDS011;51868;48.812;8.198;2022-08-26T09:21:46;8.40;;;5.30;;
65271;SDS011;51868;48.812;8.198;2022-08-26T09:24:23;5.78;;;4.78;;
65271;SDS011;51868;48.812;8.198;2022-08-26T09:26:55;9.93;;;4.93;;
65271;SDS011;51868;48.812;8.198;2022-08-26T09:29:25;7.60;;;5.30;;
65271;SDS011;51868;48.812;8.198;2022-08-26T09:32:13;10.73;;;5.18;;
65271;SDS011;51868;48.812;8.198;2022-08-26T09:34:54;7.72;;;5.57;;
65271;SDS011;51868;48.812;8.198;2022-08-26T09:37:33;7.47;;;5.22;;
65271;SDS011;51868;48.812;8.198;2022-08-26T09:40:24;7.57;;;5.20;;
65271;SDS011;51868;48.812;8.198;2022-08-26T09:43:05;7.15;;;5.05;;
65271;SDS011;51868;48.812;8.198;2022-08-26T09:45:36;9.10;;;5.53;;
65271;SDS011;51868;48.812;8.198;2022-08-26T09:51:02;6.68;;;5.45;;
65271;SDS011;51868;48.812;8.198;2022-08-26T09:53:33;6.85;;;4.68;;
65271;SDS011;51868;48.812;8.198;2022-08-26T09:56:12;11.90;;;4.75;;
65271;SDS011;51868;48.812;8.198;2022-08-26T09:58:43;6.57;;;4.85;;
65271;SDS011;51868;48.812;8.198;2022-08-26T10:01:30;6.55;;;4.70;;
65271;SDS011;51868;48.812;8.198;2022-08-26T10:04:02;6.65;;;5.18;;
65271;SDS011;51868;48.812;8.198;2022-08-26T10:06:33;5.43;;;4.90;;
65271;SDS011;51868;48.812;8.198;2022-08-26T10:09:06;5.47;;;4.97;;
65271;SDS011;51868;48.812;8.198;2022-08-26T10:11:41;8.02;;;5.35;;
65271;SDS011;51868;48.812;8.198;2022-08-26T10:14:16;7.80;;;4.80;;
65271;SDS011;51868;48.812;8.198;2022-08-26T10:16:49;8.63;;;5.22;;
65271;SDS011;51868;48.812;8.198;2022-08-26T10:19:23;6.47;;;5.00;;
65271;SDS011;51868;48.812;8.198;2022-08-26T10:22:19;5.35;;;4.85;;
65271;SDS011;51868;48.812;8.198;2022-08-26T10:24:53;7.82;;;5.00;;
65271;SDS011;51868;48.812;8.198;2022-08-26T10:27:26;7.30;;;4.75;;
65271;SDS011;51868;48.812;8.198;2022-08-26T10:30:03;5.63;;;4.13;;
65271;SDS011;51868;48.812;8.198;2022-08-26T10:32:36;8.48;;;5.07;;
65271;SDS011;51868;48.812;8.198;2022-08-26T10:35:08;5.80;;;4.43;;
65271;SDS011;51868;48.812;8.198;2022-08-26T10:40:12;5.55;;;4.35;;
65271;SDS011;51868;48.812;8.198;2022-08-26T10:42:49;7.72;;;4.43;;
65271;SDS011;51868;48.812;8.198;2022-08-26T10:45:22;6.38;;;4.78;;
65271;SDS011;51868;48.812;8.198;2022-08-26T10:47:54;5.07;;;4.60;;
65271;SDS011;51868;48.812;8.198;2022-08-26T10:50:29;6.43;;;4.68;;
65271;SDS011;51868;48.812;8.198;2022-08-26T10:53:00;6.30;;;4.80;;
65271;SDS011;51868;48.812;8.198;2022-08-26T10:55:34;5.00;;;4.50;;
65271;SDS011;51868;48.812;8.198;2022-08-26T10:58:15;5.70;;;4.82;;
65271;SDS011;51868;48.812;8.198;2022-08-26T11:01:02;6.13;;;4.50;;
65271;SDS011;51868;48.812;8.198;2022-08-26T11:03:57;7.93;;;4.40;;
65271;SDS011;51868;48.812;8.198;2022-08-26T11:06:31;7.90;;;4.47;;
65271;SDS011;51868;48.812;8.198;2022-08-26T11:09:02;6.43;;;3.88;;
65271;SDS011;51868;48.812;8.198;2022-08-26T11:11:40;4.65;;;4.20;;
65271;SDS011;51868;48.812;8.198;2022-08-26T11:14:36;8.80;;;4.20;;
65271;SDS011;51868;48.812;8.198;2022-08-26T11:20:32;6.68;;;4.50;;
65271;SDS011;51868;48.812;8.198;2022-08-26T11:26:15;5.10;;;4.50;;
65271;SDS011;51868;48.812;8.198;2022-08-26T11:29:01;4.68;;;4.25;;
65271;SDS011;51868;48.812;8.198;2022-08-26T11:31:54;4.60;;;4.13;;
65271;SDS011;51868;48.812;8.198;2022-08-26T11:37:21;5.90;;;3.67;;
65271;SDS011;51868;48.812;8.198;2022-08-26T11:39:57;5.75;;;4.15;;
65271;SDS011;51868;48.812;8.198;2022-08-26T11:42:31;6.85;;;3.75;;
65271;SDS011;51868;48.812;8.198;2022-08-26T11:45:13;4.95;;;4.10;;
65271;SDS011;51868;48.812;8.198;2022-08-26T11:47:45;4.55;;;4.15;;
65271;SDS011;51868;48.812;8.198;2022-08-26T11:50:16;4.68;;;4.18;;
65271;SDS011;51868;48.812;8.198;2022-08-26T11:52:52;7.00;;;3.75;;
65271;SDS011;51868;48.812;8.198;2022-08-26T11:55:22;5.30;;;3.97;;
65271;SDS011;51868;48.812;8.198;2022-08-26T11:57:51;4.90;;;4.43;;
65271;SDS011;51868;48.812;8.198;2022-08-26T12:00:21;4.70;;;4.20;;
65271;SDS011;51868;48.812;8.198;2022-08-26T12:02:53;5.10;;;4.43;;
65271;SDS011;51868;48.812;8.198;2022-08-26T12:05:22;5.07;;;4.20;;
65271;SDS011;51868;48.812;8.198;2022-08-26T12:07:56;4.68;;;4.18;;
65271;SDS011;51868;48.812;8.198;2022-08-26T12:10:28;4.55;;;3.90;;
65271;SDS011;51868;48.812;8.198;2022-08-26T12:15:28;6.05;;;3.90;;
65271;SDS011;51868;48.812;8.198;2022-08-26T12:18:01;4.53;;;3.55;;
65271;SDS011;51868;48.812;8.198;2022-08-26T12:20:54;10.50;;;3.90;;
65271;SDS011;51868;48.812;8.198;2022-08-26T12:23:23;8.52;;;4.20;;
65271;SDS011;51868;48.812;8.198;2022-08-26T12:25:53;4.13;;;3.65;;
65271;SDS011;51868;48.812;8.198;2022-08-26T12:28:31;3.80;;;3.40;;
65271;SDS011;51868;48.812;8.198;2022-08-26T12:31:00;4.18;;;3.63;;
65271;SDS011;51868;48.812;8.198;2022-08-26T12:33:32;4.20;;;3.80;;
65271;SDS011;51868;48.812;8.198;2022-08-26T12:36:01;7.30;;;4.10;;
65271;SDS011;51868;48.812;8.198;2022-08-26T12:38:31;6.38;;;4.32;;
65271;SDS011;51868;48.812;8.198;2022-08-26T12:41:02;4.80;;;3.60;;
65271;SDS011;51868;48.812;8.198;2022-08-26T12:43:40;6.45;;;4.15;;
65271;SDS011;51868;48.812;8.198;2022-08-26T12:46:11;5.80;;;3.90;;
65271;SDS011;51868;48.812;8.198;2022-08-26T12:48:46;4.55;;;3.92;;
65271;SDS011;51868;48.812;8.198;2022-08-26T12:51:18;6.32;;;3.90;;
65271;SDS011;51868;48.812;8.198;2022-08-26T12:53:49;4.40;;;4.00;;
65271;SDS011;51868;48.812;8.198;2022-08-26T12:56:20;7.18;;;4.57;;
65271;SDS011;51868;48.812;8.198;2022-08-26T12:58:59;7.13;;;4.50;;
65271;SDS011;51868;48.812;8.198;2022-08-26T13:01:39;5.05;;;3.78;;
65271;SDS011;51868;48.812;8.198;2022-08-26T13:07:11;6.97;;;3.80;;
65271;SDS011;51868;48.812;8.198;2022-08-26T13:09:41;6.55;;;3.75;;
65271;SDS011;51868;48.812;8.198;2022-08-26T13:12:09;6.38;;;4.30;;
65271;SDS011;51868;48.812;8.198;2022-08-26T13:14:38;4.22;;;3.80;;
65271;SDS011;51868;48.812;8.198;2022-08-26T13:17:06;6.72;;;3.92;;
65271;SDS011;51868;48.812;8.198;2022-08-26T13:19:35;7.80;;;4.15;;
65271;SDS011;51868;48.812;8.198;2022-08-26T13:22:03;6.10;;;4.07;;
65271;SDS011;51868;48.812;8.198;2022-08-26T13:24:33;4.80;;;4.13;;
65271;SDS011;51868;48.812;8.198;2022-08-26T13:27:11;5.75;;;4.18;;
65271;SDS011;51868;48.812;8.198;2022-08-26T13:32:08;6.20;;;3.85;;
65271;SDS011;51868;48.812;8.198;2022-08-26T13:34:40;6.38;;;3.28;;
65271;SDS011;51868;48.812;8.198;2022-08-26T13:37:16;6.57;;;3.20;;
65271;SDS011;51868;48.812;8.198;2022-08-26T13:39:59;3.47;;;2.80;;
65271;SDS011;51868;48.812;8.198;2022-08-26T13:42:29;6.22;;;3.25;;
65271;SDS011;51868;48.812;8.198;2022-08-26T13:45:01;7.38;;;2.78;;
65271;SDS011;51868;48.812;8.198;2022-08-26T13:47:30;4.65;;;2.80;;
65271;SDS011;51868;48.812;8.198;2022-08-26T13:49:59;8.05;;;2.58;;
65271;SDS011;51868;48.812;8.198;2022-08-26T13:52:27;7.22;;;2.65;;
65271;SDS011;51868;48.812;8.198;2022-08-26T13:55:00;5.47;;;3.10;;
65271;SDS011;51868;48.812;8.198;2022-08-26T13:57:30;10.95;;;3.33;;
65271;SDS011;51868;48.812;8.198;2022-08-26T14:00:01;11.13;;;3.45;;
65271;SDS011;51868;48.812;8.198;2022-08-26T14:02:29;10.90;;;2.92;;
65271;SDS011;51868;48.812;8.198;2022-08-26T14:05:02;7.82;;;3.55;;
65271;SDS011;51868;48.812;8.198;2022-08-26T14:07:31;6.30;;;3.83;;
65271;SDS011;51868;48.812;8.198;2022-08-26T14:09:58;8.93;;;3.72;;
65271;SDS011;51868;48.812;8.198;2022-08-26T14:12:26;5.65;;;4.38;;
65271;SDS011;51868;48.812;8.198;2022-08-26T14:14:54;5.10;;;4.35;;
65271;SDS011;51868;48.812;8.198;2022-08-26T14:17:22;4.80;;;4.30;;
65271;SDS011;51868;48.812;8.198;2022-08-26T14:19:55;6.28;;;4.18;;
65271;SDS011;51868;48.812;8.198;2022-08-26T14:22:24;6.82;;;3.90;;
65271;SDS011;51868;48.812;8.198;2022-08-26T14:24:52;8.52;;;4.80;;
65271;SDS011;51868;48.812;8.198;2022-08-26T14:27:22;8.75;;;4.50;;
65271;SDS011;51868;48.812;8.198;2022-08-26T14:29:53;8.07;;;5.30;;
65271;SDS011;51868;48.812;8.198;2022-08-26T14:32:21;7.53;;;5.30;;
65271;SDS011;51868;48.812;8.198;2022-08-26T14:34:52;7.55;;;6.28;;
65271;SDS011;51868;48.812;8.198;2022-08-26T14:37:20;9.30;;;7.20;;
65271;SDS011;51868;48.812;8.198;2022-08-26T14:39:50;8.10;;;6.15;;
65271;SDS011;51868;48.812;8.198;2022-08-26T14:42:19;9.20;;;6.38;;
65271;SDS011;51868;48.812;8.198;2022-08-26T14:44:50;10.35;;;7.85;;
65271;SDS011;51868;48.812;8.198;2022-08-26T14:47:20;12.70;;;7.82;;
65271;SDS011;51868;48.812;8.198;2022-08-26T14:49:48;10.23;;;7.20;;
65271;SDS011;51868;48.812;8.198;2022-08-26T14:52:16;12.98;;;8.00;;
65271;SDS011;51868;48.812;8.198;2022-08-26T14:54:44;9.93;;;6.90;;
65271;SDS011;51868;48.812;8.198;2022-08-26T14:57:13;8.50;;;7.25;;
65271;SDS011;51868;48.812;8.198;2022-08-26T14:59:43;7.50;;;6.27;;
65271;SDS011;51868;48.812;8.198;2022-08-26T15:02:15;8.57;;;6.32;;
65271;SDS011;51868;48.812;8.198;2022-08-26T15:04:59;7.30;;;5.15;;
65271;SDS011;51868;48.812;8.198;2022-08-26T15:07:27;7.57;;;5.57;;
65271;SDS011;51868;48.812;8.198;2022-08-26T15:09:55;7.07;;;4.80;;
65271;SDS011;51868;48.812;8.198;2022-08-26T15:12:24;5.68;;;5.03;;
65271;SDS011;51868;48.812;8.198;2022-08-26T15:14:52;5.57;;;4.97;;
65271;SDS011;51868;48.812;8.198;2022-08-26T15:17:20;6.25;;;4.70;;
65271;SDS011;51868;48.812;8.198;2022-08-26T15:19:48;9.35;;;5.05;;
65271;SDS011;51868;48.812;8.198;2022-08-26T15:22:16;7.43;;;5.00;;
65271;SDS011;51868;48.812;8.198;2022-08-26T15:24:44;5.82;;;4.38;;
65271;SDS011;51868;48.812;8.198;2022-08-26T15:27:16;4.53;;;4.13;;
65271;SDS011;51868;48.812;8.198;2022-08-26T15:29:46;4.97;;;4.38;;
65271;SDS011;51868;48.812;8.198;2022-08-26T15:32:13;5.32;;;4.53;;
65271;SDS011;51868;48.812;8.198;2022-08-26T15:34:41;6.18;;;4.93;;
65271;SDS011;51868;48.812;8.198;2022-08-26T15:37:09;5.15;;;4.60;;
65271;SDS011;51868;48.812;8.198;2022-08-26T15:39:37;5.18;;;4.30;;
65271;SDS011;51868;48.812;8.198;2022-08-26T15:42:06;5.35;;;4.25;;
65271;SDS011;51868;48.812;8.198;2022-08-26T15:44:33;6.28;;;3.88;;
65271;SDS011;51868;48.812;8.198;2022-08-26T15:47:14;10.50;;;4.30;;
65271;SDS011;51868;48.812;8.198;2022-08-26T15:49:45;4.50;;;4.10;;
65271;SDS011;51868;48.812;8.198;2022-08-26T15:52:13;4.60;;;4.10;;
65271;SDS011;51868;48.812;8.198;2022-08-26T15:54:42;6.85;;;4.22;;
65271;SDS011;51868;48.812;8.198;2022-08-26T15:57:10;6.05;;;3.97;;
65271;SDS011;51868;48.812;8.198;2022-08-26T15:59:41;5.10;;;3.73;;
65271;SDS011;51868;48.812;8.198;2022-08-26T16:02:10;7.93;;;4.25;;